Time;durP1;ratioP1;P1;durP2;ratioP2;P2;SDS_P1;SDS_P2;PMS_P1;PMS_P2;Temp;Humidity;BMP_temperature;BMP_pressure;BME280_temperature;BME280_humidity;BME280_pressure;Samples;Min_cycle;Max_cycle;Signal;HPM_P1;HPM_P2
2022/05/16 00:00:16;;;;;;;17.88;8.25;;;14.20;99.90;;;;;;5029938;28;20053;-62
2022/05/16 00:02:44;;;;;;;15.20;7.25;;;14.20;99.90;;;;;;5029570;28;20053;-61
2022/05/16 00:05:12;;;;;;;20.13;7.22;;;14.20;99.90;;;;;;5018759;28;20045;-61
2022/05/16 00:07:41;;;;;;;24.20;7.60;;;14.20;99.90;;;;;;5010521;28;20524;-61
2022/05/16 00:10:09;;;;;;;19.38;7.60;;;14.10;99.90;;;;;;5029787;28;20048;-61
2022/05/16 00:12:37;;;;;;;18.42;7.55;;;14.10;99.90;;;;;;5029841;28;20053;-61
2022/05/16 00:15:06;;;;;;;19.45;7.45;;;14.10;99.90;;;;;;5029642;28;20042;-61
2022/05/16 00:17:34;;;;;;;17.63;7.23;;;14.10;99.90;;;;;;5029533;28;20517;-61
2022/05/16 00:20:03;;;;;;;26.75;7.75;;;14.10;99.90;;;;;;5020917;28;20307;-62
2022/05/16 00:22:32;;;;;;;17.63;7.03;;;14.10;99.90;;;;;;5009886;28;20052;-62
2022/05/16 00:24:59;;;;;;;17.40;6.95;;;14.10;99.90;;;;;;5008720;28;20405;-61
2022/05/16 00:27:27;;;;;;;16.50;7.00;;;14.00;99.90;;;;;;5009930;28;20061;-64
2022/05/16 00:29:54;;;;;;;17.48;6.85;;;14.00;99.90;;;;;;5027181;28;20041;-66
2022/05/16 00:32:23;;;;;;;21.63;6.10;;;14.00;99.90;;;;;;5029419;28;20048;-67
2022/05/16 00:34:50;;;;;;;16.77;6.10;;;14.00;99.90;;;;;;5023316;28;20049;-67
2022/05/16 00:37:18;;;;;;;17.60;6.18;;;14.00;99.90;;;;;;5010090;28;20046;-62
2022/05/16 00:39:45;;;;;;;11.60;5.93;;;14.00;99.90;;;;;;5025982;28;20042;-60
2022/05/16 00:42:13;;;;;;;22.50;6.72;;;14.00;99.90;;;;;;5029463;28;20045;-61
2022/05/16 00:44:41;;;;;;;19.35;5.63;;;14.00;99.90;;;;;;5033208;28;20409;-60
2022/05/16 00:47:09;;;;;;;15.05;5.85;;;14.00;99.90;;;;;;5015938;28;20497;-60
2022/05/16 00:49:42;;;;;;;25.90;6.53;;;14.00;99.90;;;;;;5029550;28;20053;-61
2022/05/16 00:52:23;;;;;;;21.38;5.32;;;14.00;99.90;;;;;;5013599;28;20375;-60
2022/05/16 00:54:57;;;;;;;17.90;6.60;;;13.90;99.90;;;;;;5013555;28;20058;-61
2022/05/16 00:57:32;;;;;;;20.58;6.45;;;13.90;99.90;;;;;;5013442;28;20046;-60
2022/05/16 01:00:05;;;;;;;21.67;5.90;;;13.90;99.90;;;;;;5048525;28;20052;-61
2022/05/16 01:05:22;;;;;;;19.48;5.63;;;13.80;99.90;;;;;;5020921;28;20038;-62
2022/05/16 01:07:50;;;;;;;18.25;5.68;;;13.80;99.90;;;;;;5013442;28;20049;-61
2022/05/16 01:10:21;;;;;;;23.73;5.28;;;13.80;99.90;;;;;;5031642;28;20044;-64
2022/05/16 01:12:51;;;;;;;20.60;6.07;;;13.80;99.90;;;;;;5032751;28;20038;-63
2022/05/16 01:15:38;;;;;;;;;;;13.80;99.90;;;;;;5033277;28;20037;-61
2022/05/16 01:18:08;;;;;;;20.55;5.53;;;13.70;99.90;;;;;;5031359;28;20404;-62
2022/05/16 01:20:39;;;;;;;20.20;6.05;;;13.70;99.90;;;;;;5022986;28;20054;-62
2022/05/16 01:23:08;;;;;;;23.95;6.53;;;13.70;99.90;;;;;;4995498;28;20065;-62
2022/05/16 01:25:35;;;;;;;28.63;6.22;;;13.70;99.90;;;;;;5012739;28;20056;-65
2022/05/16 01:28:06;;;;;;;22.35;5.95;;;13.60;99.90;;;;;;5016056;28;20508;-61
2022/05/16 01:30:41;;;;;;;23.30;5.93;;;13.60;99.90;;;;;;5031085;28;20049;-61
2022/05/16 01:33:09;;;;;;;22.50;6.30;;;13.60;99.90;;;;;;5014440;28;20500;-60
2022/05/16 01:35:37;;;;;;;37.67;7.40;;;13.60;99.90;;;;;;5014246;28;20046;-61
2022/05/16 01:38:21;;;;;;;19.80;5.80;;;13.60;99.90;;;;;;5017497;28;20650;-62
2022/05/16 01:40:55;;;;;;;18.77;5.30;;;13.60;99.90;;;;;;5033742;28;20477;-61
2022/05/16 01:43:25;;;;;;;22.77;6.60;;;13.60;99.90;;;;;;5034058;28;20041;-63
2022/05/16 01:45:53;;;;;;;18.60;5.18;;;13.60;99.90;;;;;;5032453;28;20048;-61
2022/05/16 01:48:21;;;;;;;20.20;6.13;;;13.60;99.90;;;;;;5033871;28;20049;-61
2022/05/16 01:50:50;;;;;;;22.45;6.32;;;13.50;99.90;;;;;;5033721;28;20049;-61
2022/05/16 01:53:18;;;;;;;18.70;6.75;;;13.50;99.90;;;;;;5033841;28;20053;-62
2022/05/16 01:55:46;;;;;;;19.60;6.20;;;13.50;99.90;;;;;;5032603;28;20058;-61
2022/05/16 01:58:13;;;;;;;24.98;6.57;;;13.50;99.90;;;;;;5033306;28;20049;-62
2022/05/16 02:00:41;;;;;;;26.52;6.80;;;13.50;99.90;;;;;;5033716;28;20042;-66
2022/05/16 02:03:10;;;;;;;21.45;7.65;;;13.50;99.90;;;;;;5033693;28;20509;-61
2022/05/16 02:05:41;;;;;;;16.77;6.43;;;13.50;99.90;;;;;;5033662;28;20037;-61
2022/05/16 02:08:10;;;;;;;20.95;6.53;;;13.50;99.90;;;;;;5033465;28;20045;-61
2022/05/16 02:10:39;;;;;;;21.48;6.10;;;13.50;99.90;;;;;;5033592;28;20049;-61
2022/05/16 02:13:08;;;;;;;17.45;7.03;;;13.50;99.90;;;;;;5031989;28;20056;-63
2022/05/16 02:15:38;;;;;;;22.67;6.70;;;13.50;99.90;;;;;;5033210;28;20046;-61
2022/05/16 02:18:07;;;;;;;;;;;13.50;99.90;;;;;;5033841;28;20393;-62
2022/05/16 02:20:35;;;;;;;24.38;6.95;;;13.50;99.90;;;;;;5033368;28;20365;-66
2022/05/16 02:25:53;;;;;;;23.27;6.88;;;13.50;99.90;;;;;;5033522;28;20052;-67
2022/05/16 02:28:22;;;;;;;23.92;7.35;;;13.50;99.90;;;;;;5032875;28;20045;-66
2022/05/16 02:30:53;;;;;;;25.42;8.55;;;13.50;99.90;;;;;;5033223;28;20060;-60
2022/05/16 02:33:22;;;;;;;22.80;7.57;;;13.50;99.90;;;;;;5032904;28;20042;-61
2022/05/16 02:35:50;;;;;;;22.98;7.80;;;13.40;99.90;;;;;;5033001;28;20056;-59
2022/05/16 02:38:20;;;;;;;24.20;8.82;;;13.50;99.90;;;;;;5032935;28;20037;-61
2022/05/16 02:40:48;;;;;;;26.23;7.85;;;13.50;99.90;;;;;;5033031;28;20061;-60
2022/05/16 02:43:15;;;;;;;23.63;7.97;;;13.50;99.90;;;;;;5032817;28;20405;-61
2022/05/16 02:45:43;;;;;;;27.77;7.55;;;13.50;99.90;;;;;;5032527;28;20117;-60
2022/05/16 02:48:11;;;;;;;27.50;8.75;;;13.50;99.90;;;;;;5032785;28;20056;-65
2022/05/16 02:50:38;;;;;;;21.90;8.85;;;13.50;99.90;;;;;;5032504;28;20489;-66
2022/05/16 02:53:07;;;;;;;30.27;9.15;;;13.40;99.90;;;;;;5032663;28;20041;-63
2022/05/16 02:55:34;;;;;;;19.70;7.75;;;13.50;99.90;;;;;;5032623;28;20038;-64
2022/05/16 02:58:02;;;;;;;24.98;8.45;;;13.40;99.90;;;;;;5032789;28;20060;-66
2022/05/16 03:00:30;;;;;;;23.40;8.65;;;13.40;99.90;;;;;;5032502;28;20041;-63
2022/05/16 03:02:57;;;;;;;23.05;8.07;;;13.40;99.90;;;;;;5032394;28;20056;-67
2022/05/16 03:05:25;;;;;;;23.38;8.73;;;13.40;99.90;;;;;;5032339;28;20049;-63
2022/05/16 03:07:53;;;;;;;26.58;9.02;;;13.40;99.90;;;;;;5032291;28;20045;-66
2022/05/16 03:10:22;;;;;;;22.48;8.48;;;13.50;99.90;;;;;;5032360;28;20049;-64
2022/05/16 03:12:51;;;;;;;21.67;8.27;;;13.40;99.90;;;;;;5032185;28;20041;-65
2022/05/16 03:15:19;;;;;;;14.27;7.63;;;13.40;99.90;;;;;;5032547;28;20473;-66
2022/05/16 03:17:48;;;;;;;22.00;8.27;;;13.40;99.90;;;;;;5032111;28;20041;-64
2022/05/16 03:20:16;;;;;;;22.45;8.50;;;13.40;99.90;;;;;;5032096;28;20068;-66
2022/05/16 03:22:43;;;;;;;20.83;9.05;;;13.30;99.90;;;;;;5032193;28;20041;-66
2022/05/16 03:25:11;;;;;;;19.45;8.10;;;13.40;99.90;;;;;;5031920;28;20516;-66
2022/05/16 03:27:39;;;;;;;23.63;8.90;;;13.30;99.90;;;;;;5031992;28;20049;-67
2022/05/16 03:30:09;;;;;;;20.73;7.35;;;13.40;99.90;;;;;;5032012;28;20052;-68
2022/05/16 03:32:37;;;;;;;18.55;6.95;;;13.30;99.90;;;;;;5031799;28;20042;-67
2022/05/16 03:35:05;;;;;;;19.02;7.60;;;13.40;99.90;;;;;;5031913;28;20401;-67
2022/05/16 03:37:33;;;;;;;14.40;6.90;;;13.30;99.90;;;;;;5031982;28;20504;-64
2022/05/16 03:42:47;;;;;;;15.73;6.85;;;13.30;99.90;;;;;;5031767;28;20045;-64
2022/05/16 03:45:15;;;;;;;16.33;8.27;;;13.30;99.90;;;;;;5031595;28;20060;-64
2022/05/16 03:47:44;;;;;;;17.85;7.60;;;13.30;99.90;;;;;;5031818;28;20390;-65
2022/05/16 03:50:13;;;;;;;17.02;8.25;;;13.30;99.90;;;;;;5031613;28;20053;-66
2022/05/16 03:52:41;;;;;;;17.05;8.90;;;13.30;99.90;;;;;;5031825;28;20046;-67
2022/05/16 03:55:13;;;;;;;20.42;9.15;;;13.30;99.90;;;;;;5031821;28;20408;-61
2022/05/16 03:57:42;;;;;;;16.75;8.73;;;13.30;99.90;;;;;;5031542;28;20049;-61
2022/05/16 04:00:14;;;;;;;16.77;8.63;;;13.30;99.90;;;;;;5031413;28;20477;-60
2022/05/16 04:02:42;;;;;;;15.55;7.80;;;13.30;99.90;;;;;;5031658;28;20045;-61
2022/05/16 04:05:18;;;;;;;16.80;9.15;;;13.30;99.90;;;;;;5031337;28;20061;-61
2022/05/16 04:07:47;;;;;;;11.77;7.53;;;13.30;99.90;;;;;;5031616;28;20388;-61
2022/05/16 04:10:15;;;;;;;15.63;8.93;;;13.30;99.90;;;;;;5031430;28;20527;-62
2022/05/16 04:12:43;;;;;;;19.60;8.88;;;13.30;99.90;;;;;;5031385;28;20052;-60
2022/05/16 04:15:12;;;;;;;20.35;8.90;;;13.30;99.90;;;;;;5031581;28;20050;-61
2022/05/16 04:17:41;;;;;;;26.63;11.77;;;13.30;99.90;;;;;;5032284;28;20378;-61
2022/05/16 04:20:10;;;;;;;20.30;10.35;;;13.30;99.90;;;;;;5018108;28;20057;-61
2022/05/16 04:22:38;;;;;;;22.38;10.38;;;13.30;99.90;;;;;;5035536;28;20046;-64
2022/05/16 04:25:07;;;;;;;22.08;9.98;;;13.30;99.90;;;;;;5035177;28;20431;-60
2022/05/16 04:27:34;;;;;;;20.13;9.93;;;13.40;99.90;;;;;;5035428;28;20044;-61
2022/05/16 04:30:03;;;;;;;23.23;9.77;;;13.40;99.90;;;;;;5035358;28;20061;-60
2022/05/16 04:32:31;;;;;;;21.05;9.63;;;13.40;99.90;;;;;;5035245;28;20057;-60
2022/05/16 04:34:59;;;;;;;21.45;10.35;;;13.40;99.90;;;;;;5035250;28;20527;-61
2022/05/16 04:37:32;;;;;;;19.55;9.98;;;13.40;99.90;;;;;;5035065;28;20061;-61
2022/05/16 04:40:00;;;;;;;29.10;12.45;;;13.40;99.90;;;;;;5035376;28;20053;-60
2022/05/16 04:42:40;;;;;;;23.85;10.45;;;13.40;99.90;;;;;;5035229;28;20040;-65
2022/05/16 04:45:19;;;;;;;23.77;11.00;;;13.40;99.90;;;;;;5034967;28;20045;-65
2022/05/16 04:47:51;;;;;;;23.67;11.05;;;13.40;99.90;;;;;;5025228;28;20042;-67
2022/05/16 04:50:22;;;;;;;23.20;11.82;;;13.50;99.90;;;;;;5011963;28;20053;-65
2022/05/16 04:52:50;;;;;;;23.42;10.48;;;13.50;99.90;;;;;;5011862;28;20050;-68
2022/05/16 04:55:18;;;;;;;24.67;11.73;;;13.50;99.90;;;;;;5012291;28;20049;-67
2022/05/16 04:57:47;;;;;;;23.13;10.88;;;13.40;99.90;;;;;;5018491;28;20057;-67
2022/05/16 05:00:17;;;;;;;23.80;10.73;;;13.40;99.90;;;;;;5030461;28;20049;-65
2022/05/16 05:02:45;;;;;;;26.83;11.77;;;13.40;99.90;;;;;;5023955;28;20052;-59
2022/05/16 05:05:14;;;;;;;24.90;11.82;;;13.40;99.90;;;;;;5029780;28;20057;-64
2022/05/16 05:07:43;;;;;;;23.33;11.67;;;13.40;99.90;;;;;;5019167;28;20053;-64
2022/05/16 05:15:47;;;;;;;25.88;12.10;;;13.30;99.90;;;;;;5032796;28;20049;-65
2022/05/16 05:18:15;;;;;;;26.88;11.52;;;13.40;99.90;;;;;;5032474;28;20058;-64
2022/05/16 05:20:44;;;;;;;24.83;11.45;;;13.40;99.90;;;;;;5030388;28;20493;-60
2022/05/16 05:23:12;;;;;;;26.20;12.07;;;13.40;99.90;;;;;;5021847;28;20050;-60
2022/05/16 05:25:39;;;;;;;27.85;10.75;;;13.40;99.90;;;;;;5009707;28;20057;-60
2022/05/16 05:28:07;;;;;;;28.00;11.60;;;13.40;99.90;;;;;;5017990;28;20050;-59
2022/05/16 05:30:35;;;;;;;28.75;12.02;;;13.40;99.90;;;;;;5012816;28;20133;-60
2022/05/16 05:33:02;;;;;;;29.25;13.18;;;13.40;99.90;;;;;;5012580;28;20049;-61
2022/05/16 05:35:30;;;;;;;34.78;12.65;;;13.40;99.90;;;;;;5009356;28;20422;-60
2022/05/16 05:37:57;;;;;;;31.52;12.70;;;13.40;99.90;;;;;;5017488;28;20484;-62
2022/05/16 05:40:26;;;;;;;28.98;12.55;;;13.40;99.90;;;;;;5029213;28;20107;-64
2022/05/16 05:42:54;;;;;;;33.53;12.50;;;13.50;99.90;;;;;;5029127;28;20049;-63
2022/05/16 05:45:22;;;;;;;26.30;13.40;;;13.50;99.90;;;;;;5028830;28;20049;-61
2022/05/16 05:47:50;;;;;;;24.08;12.68;;;13.50;99.90;;;;;;5025744;28;20049;-67
2022/05/16 05:50:18;;;;;;;26.50;12.50;;;13.50;99.90;;;;;;5011397;28;20053;-62
2022/05/16 05:52:46;;;;;;;30.33;12.40;;;13.50;99.90;;;;;;5009206;28;20076;-64
2022/05/16 05:55:13;;;;;;;31.05;12.82;;;13.60;99.90;;;;;;5008901;28;20405;-60
2022/05/16 05:57:41;;;;;;;27.33;14.18;;;13.60;99.90;;;;;;5017339;28;20065;-62
2022/05/16 06:00:11;;;;;;;29.00;12.95;;;13.60;99.90;;;;;;5032147;28;20512;-64
2022/05/16 06:02:41;;;;;;;26.55;12.75;;;13.70;99.90;;;;;;5025437;28;20050;-63
2022/05/16 06:05:11;;;;;;;30.88;12.77;;;13.70;99.90;;;;;;5009186;28;20505;-60
2022/05/16 06:07:39;;;;;;;24.63;12.25;;;13.80;99.90;;;;;;5016748;28;20068;-60
2022/05/16 06:10:08;;;;;;;30.48;14.48;;;13.80;99.90;;;;;;5031856;28;20042;-61
2022/05/16 06:12:36;;;;;;;28.33;14.18;;;13.80;99.90;;;;;;5031812;28;20053;-66
2022/05/16 06:15:05;;;;;;;31.63;14.05;;;13.90;99.90;;;;;;5031876;28;20050;-60
2022/05/16 06:17:35;;;;;;;26.17;12.98;;;13.90;99.90;;;;;;5029482;28;20050;-61
2022/05/16 06:20:04;;;;;;;32.25;13.65;;;13.90;99.90;;;;;;5011909;28;20054;-62
2022/05/16 06:22:36;;;;;;;32.22;11.98;;;13.90;99.90;;;;;;5011841;28;20497;-61
2022/05/16 06:25:34;;;;;;;32.25;12.85;;;13.90;99.90;;;;;;5011768;28;20053;-62
2022/05/16 06:28:05;;;;;;;27.83;12.35;;;13.90;99.90;;;;;;5019819;28;20041;-61
2022/05/16 06:30:34;;;;;;;32.97;12.93;;;14.00;99.90;;;;;;5031507;28;20046;-61
2022/05/16 06:33:03;;;;;;;32.10;13.20;;;14.00;99.90;;;;;;5025915;28;20413;-60
2022/05/16 06:35:31;;;;;;;27.17;12.52;;;14.00;99.90;;;;;;5011452;28;20064;-62
2022/05/16 06:38:11;;;;;;;29.75;12.43;;;14.00;99.90;;;;;;5019230;28;20042;-62
2022/05/16 06:40:41;;;;;;;27.73;13.45;;;14.00;99.90;;;;;;5013446;28;20125;-63
2022/05/16 06:43:09;;;;;;;28.95;13.25;;;14.00;99.90;;;;;;5011385;28;20410;-60
2022/05/16 06:45:38;;;;;;;29.00;12.80;;;13.90;99.90;;;;;;5043690;28;20037;-66
2022/05/16 06:48:06;;;;;;;28.88;12.88;;;13.90;99.90;;;;;;5015391;28;20042;-62
2022/05/16 06:50:35;;;;;;;27.02;13.60;;;13.90;99.90;;;;;;5011068;28;20050;-61
2022/05/16 06:53:03;;;;;;;27.00;13.27;;;13.90;99.90;;;;;;5008271;28;20041;-61
2022/05/16 06:55:31;;;;;;;29.95;13.45;;;13.90;99.90;;;;;;5008416;28;20052;-60
2022/05/16 06:57:59;;;;;;;29.65;14.40;;;13.90;99.90;;;;;;5019084;28;20050;-60
2022/05/16 07:00:27;;;;;;;33.30;16.88;;;13.90;99.90;;;;;;5030961;28;20038;-60
2022/05/16 07:02:54;;;;;;;35.97;13.35;;;13.80;99.90;;;;;;5024310;28;20053;-60
2022/05/16 07:05:43;;;;;;;32.40;14.52;;;13.80;99.90;;;;;;5007219;28;20045;-60
2022/05/16 07:08:11;;;;;;;32.65;14.65;;;13.80;99.90;;;;;;5014014;28;20498;-60
2022/05/16 07:10:39;;;;;;;37.17;14.45;;;13.80;99.90;;;;;;5009174;28;20485;-61
2022/05/16 07:13:08;;;;;;;43.75;15.20;;;13.80;99.90;;;;;;5010490;28;20375;-62
2022/05/16 07:15:36;;;;;;;35.67;15.10;;;13.80;99.90;;;;;;5011169;28;20050;-64
2022/05/16 07:18:03;;;;;;;41.28;15.85;;;13.80;99.90;;;;;;5018944;28;20291;-62
2022/05/16 07:20:38;;;;;;;41.67;15.93;;;13.80;99.90;;;;;;5030336;28;20041;-63
2022/05/16 07:23:06;;;;;;;37.22;14.45;;;13.80;99.90;;;;;;5017978;28;20482;-65
2022/05/16 07:27:56;;;;;;;38.15;14.60;;;13.80;99.90;;;;;;5009154;28;20053;-60
2022/05/16 07:28:22;;;;;;;34.40;15.65;;;13.80;99.90;;;;;;5015796;28;20049;-64
2022/05/16 07:30:50;;;;;;;34.05;14.80;;;13.90;99.90;;;;;;5010533;28;20045;-64
2022/05/16 07:33:21;;;;;;;43.33;16.77;;;13.90;99.90;;;;;;5009673;28;20054;-68
2022/05/16 07:35:50;;;;;;;31.92;14.05;;;13.90;99.90;;;;;;5025564;28;20064;-61
2022/05/16 07:38:19;;;;;;;;;;;14.00;99.90;;;;;;5013207;28;20046;-61
2022/05/16 07:40:46;;;;;;;29.48;13.02;;;14.00;99.90;;;;;;5009257;28;19921;-60
2022/05/16 07:43:14;;;;;;;28.42;13.02;;;14.00;99.90;;;;;;5010300;28;20057;-60
2022/05/16 07:45:42;;;;;;;27.70;12.43;;;13.90;99.90;;;;;;5010457;28;20042;-61
2022/05/16 07:48:12;;;;;;;27.95;12.95;;;13.90;99.90;;;;;;5019371;28;20045;-60
2022/05/16 07:50:40;;;;;;;28.83;12.05;;;13.90;99.90;;;;;;5030090;28;20070;-60
2022/05/16 07:53:11;;;;;;;26.70;13.13;;;13.90;99.90;;;;;;5019191;28;20049;-61
2022/05/16 07:55:42;;;;;;;26.80;13.85;;;13.90;99.90;;;;;;5010693;28;20042;-60
2022/05/16 07:58:10;;;;;;;30.02;15.05;;;13.90;99.90;;;;;;5019257;28;20509;-60
2022/05/16 08:00:38;;;;;;;30.48;13.07;;;13.90;99.90;;;;;;5029469;28;20075;-61
2022/05/16 08:03:10;;;;;;;25.52;13.13;;;13.90;99.90;;;;;;5029911;28;20048;-61
2022/05/16 08:05:37;;;;;;;25.98;13.00;;;13.90;99.90;;;;;;5024971;28;20041;-62
2022/05/16 08:10:53;;;;;;;29.42;13.30;;;13.90;99.90;;;;;;5019940;28;20489;-62
2022/05/16 08:13:21;;;;;;;26.63;13.60;;;13.90;99.90;;;;;;5029619;28;20056;-61
2022/05/16 08:15:49;;;;;;;29.90;12.60;;;13.90;99.90;;;;;;5028374;28;20045;-61
2022/05/16 08:18:17;;;;;;;30.65;14.48;;;13.90;99.90;;;;;;5026335;28;20049;-61
2022/05/16 08:20:46;;;;;;;32.35;13.80;;;13.90;99.90;;;;;;5028853;28;20034;-64
2022/05/16 08:23:17;;;;;;;30.90;13.73;;;13.90;99.90;;;;;;5021992;28;20042;-61
2022/05/16 08:25:45;;;;;;;31.77;15.30;;;13.90;99.90;;;;;;5016592;28;21685;-60
2022/05/16 08:28:13;;;;;;;36.33;14.93;;;13.90;99.90;;;;;;5027337;28;20053;-61
2022/05/16 08:30:41;;;;;;;33.20;15.02;;;14.00;99.90;;;;;;5029438;28;20053;-64
2022/05/16 08:33:09;;;;;;;36.10;15.68;;;14.10;99.90;;;;;;5029055;28;20053;-62
2022/05/16 08:35:37;;;;;;;32.58;15.40;;;14.10;99.90;;;;;;5025351;28;20053;-61
2022/05/16 08:40:59;;;;;;;34.90;16.15;;;14.20;99.90;;;;;;5010057;28;20600;-63
2022/05/16 08:43:36;;;;;;;37.20;16.50;;;14.20;99.90;;;;;;5009643;28;20054;-61
2022/05/16 08:46:15;;;;;;;37.78;17.77;;;14.20;99.90;;;;;;5014854;28;20042;-60
2022/05/16 08:48:48;;;;;;;32.95;17.20;;;14.30;99.90;;;;;;5027813;28;20050;-61
2022/05/16 08:51:23;;;;;;;36.80;17.98;;;14.40;99.90;;;;;;5028657;28;20037;-61
2022/05/16 08:54:16;;;;;;;38.42;16.85;;;14.50;99.90;;;;;;5016578;28;20045;-61
2022/05/16 08:56:46;;;;;;;32.20;16.23;;;14.60;99.90;;;;;;5009764;28;20042;-60
2022/05/16 08:59:18;;;;;;;37.60;17.27;;;14.70;99.90;;;;;;5025909;28;20049;-61
2022/05/16 09:01:55;;;;;;;31.35;16.13;;;14.80;99.90;;;;;;5027156;28;20048;-61
2022/05/16 09:04:28;;;;;;;40.25;17.90;;;14.80;99.90;;;;;;5027040;28;20037;-61
2022/05/16 09:07:05;;;;;;;35.95;16.38;;;14.80;99.90;;;;;;5031464;28;20528;-61
2022/05/16 09:09:43;;;;;;;38.28;17.17;;;14.70;99.90;;;;;;5013251;28;20394;-62
2022/05/16 09:12:14;;;;;;;39.78;17.63;;;14.60;99.90;;;;;;5019269;28;20045;-61
2022/05/16 09:14:54;;;;;;;36.40;16.92;;;14.60;99.90;;;;;;5030374;28;20064;-61
2022/05/16 09:17:57;;;;;;;39.43;17.93;;;14.50;99.90;;;;;;5029167;28;20033;-62
2022/05/16 09:20:49;;;;;;;43.50;17.90;;;14.50;99.90;;;;;;5026767;28;20034;-65
2022/05/16 09:23:31;;;;;;;35.53;17.63;;;14.50;99.90;;;;;;5029636;28;20048;-66
2022/05/16 09:26:40;;;;;;;44.67;17.05;;;14.40;99.90;;;;;;5032652;28;20068;-66
2022/05/16 09:29:23;;;;;;;48.50;18.33;;;14.50;99.90;;;;;;5032397;28;20053;-66
2022/05/16 09:31:54;;;;;;;37.67;18.13;;;14.50;99.90;;;;;;5032097;28;20546;-64
2022/05/16 09:34:27;;;;;;;40.20;19.58;;;14.60;99.90;;;;;;5014516;28;20060;-66
2022/05/16 09:36:55;;;;;;;51.05;21.13;;;14.70;99.90;;;;;;5021265;28;20042;-62
2022/05/16 09:39:31;;;;;;;46.83;19.92;;;14.70;99.90;;;;;;5027222;28;20057;-60
2022/05/16 09:42:03;;;;;;;54.60;21.10;;;14.80;99.90;;;;;;5013154;28;20482;-61
2022/05/16 09:44:42;;;;;;;44.53;21.52;;;15.00;99.90;;;;;;5012733;28;20050;-63
2022/05/16 09:47:28;;;;;;;48.97;21.23;;;15.10;99.90;;;;;;5016431;28;20052;-61
2022/05/16 09:50:20;;;;;;;54.45;21.95;;;15.30;99.90;;;;;;5010406;28;20524;-61
2022/05/16 09:53:10;;;;;;;42.30;21.40;;;15.50;99.90;;;;;;5013004;28;20401;-61
2022/05/16 09:55:46;;;;;;;50.85;21.75;;;15.70;99.90;;;;;;5010369;28;20046;-65
2022/05/16 09:58:46;;;;;;;44.45;21.20;;;16.00;99.90;;;;;;5053463;28;20406;-66
2022/05/16 10:01:31;;;;;;;40.95;19.02;;;16.30;99.90;;;;;;5035008;28;20057;-67
2022/05/16 10:04:10;;;;;;;45.10;21.73;;;16.40;99.90;;;;;;5009718;28;20490;-66
2022/05/16 10:06:41;;;;;;;39.88;20.48;;;16.60;99.90;;;;;;5011635;28;20406;-60
2022/05/16 10:09:14;;;;;;;39.78;20.15;;;16.90;99.90;;;;;;5024259;28;20477;-66
2022/05/16 10:11:50;;;;;;;35.70;18.48;;;17.10;99.90;;;;;;5011653;28;20113;-62
2022/05/16 10:14:18;;;;;;;35.63;18.73;;;17.30;99.90;;;;;;5012077;28;20041;-61
2022/05/16 10:16:49;;;;;;;39.05;18.73;;;17.40;99.90;;;;;;5023237;28;20053;-60
2022/05/16 10:19:21;;;;;;;32.90;18.08;;;17.70;99.90;;;;;;5031257;28;20497;-62
2022/05/16 10:22:07;;;;;;;36.50;17.63;;;18.00;99.90;;;;;;5031816;28;20038;-61
2022/05/16 10:24:41;;;;;;;35.92;17.65;;;18.10;99.90;;;;;;5024306;28;20052;-62
2022/05/16 10:35:16;;;;;;;26.67;14.85;;;18.40;99.90;;;;;;5012279;28;20038;-61
2022/05/16 10:37:49;;;;;;;22.98;13.50;;;18.60;99.90;;;;;;5013712;28;20505;-61
2022/05/16 10:40:29;;;;;;;18.55;11.85;;;18.70;99.90;;;;;;5021721;28;20564;-61
2022/05/16 10:43:19;;;;;;;23.15;12.25;;;18.80;99.90;;;;;;5055576;28;20497;-61
2022/05/16 10:45:54;;;;;;;18.15;10.63;;;18.80;99.90;;;;;;5029041;28;20045;-62
2022/05/16 10:48:41;;;;;;;19.42;10.63;;;18.70;99.90;;;;;;5030665;28;20038;-61
2022/05/16 10:51:12;;;;;;;20.58;11.02;;;18.60;99.90;;;;;;5029404;28;20041;-61
2022/05/16 10:54:02;;;;;;;18.77;10.13;;;18.50;99.90;;;;;;5027289;28;20052;-63
2022/05/16 10:56:53;;;;;;;18.92;10.65;;;18.50;99.90;;;;;;5010150;28;20490;-68
2022/05/16 10:59:40;;;;;;;15.27;9.15;;;18.50;99.90;;;;;;5024662;28;20057;-68
2022/05/16 11:02:22;;;;;;;17.73;9.20;;;18.60;99.90;;;;;;5029506;28;20042;-66
2022/05/16 11:05:21;;;;;;;12.45;6.18;;;18.70;99.90;;;;;;5030848;28;20498;-63
2022/05/16 11:08:00;;;;;;;8.23;5.95;;;18.70;99.90;;;;;;5030628;28;20045;-64
2022/05/16 11:10:38;;;;;;;9.13;4.63;;;18.80;99.90;;;;;;5017664;28;20045;-61
2022/05/16 11:13:36;;;;;;;9.45;4.68;;;18.80;99.90;;;;;;5007949;28;20050;-62
2022/05/16 11:16:38;;;;;;;11.63;4.50;;;19.00;99.90;;;;;;5006738;28;20072;-61
2022/05/16 11:19:33;;;;;;;7.53;3.50;;;19.20;99.90;;;;;;4982200;28;20202;-80
2022/05/16 11:22:15;;;;;;;6.22;3.25;;;19.40;99.90;;;;;;4969526;28;20502;-81
2022/05/16 11:25:26;;;;;;;3.90;3.05;;;19.50;99.90;;;;;;4971111;28;20054;-81
2022/05/16 11:28:20;;;;;;;5.63;3.60;;;19.60;99.90;;;;;;4939777;28;20058;-79
2022/05/16 11:30:59;;;;;;;7.95;3.35;;;19.50;99.90;;;;;;4968638;28;20440;-81
2022/05/16 11:33:35;;;;;;;9.38;3.10;;;19.30;99.90;;;;;;4984909;28;20379;-82
2022/05/16 11:36:39;;;;;;;7.35;3.28;;;19.20;99.90;;;;;;4971668;28;20055;-81
2022/05/16 11:39:29;;;;;;;5.28;2.95;;;18.90;99.90;;;;;;4999250;28;20045;-81
2022/05/16 11:42:09;;;;;;;7.28;3.67;;;18.70;99.90;;;;;;4969350;28;20050;-81
2022/05/16 11:44:59;;;;;;;8.10;4.03;;;18.80;99.90;;;;;;4970294;28;20057;-81
2022/05/16 11:47:31;;;;;;;;;;;19.10;99.90;;;;;;4953214;28;20058;-81
2022/05/16 11:50:31;;;;;;;6.70;2.88;;;19.50;99.90;;;;;;4968895;28;19933;-88
2022/05/16 11:53:37;;;;;;;7.22;2.90;;;19.80;99.90;;;;;;4971185;28;20046;-80
2022/05/16 12:02:35;;;;;;;5.20;1.38;;;20.30;99.90;;;;;;4952307;28;20039;-82
2022/05/16 12:05:07;;;;;;;3.50;1.50;;;20.50;99.90;;;;;;4966304;28;20069;-83
2022/05/16 12:07:35;;;;;;;4.05;1.20;;;20.60;99.90;;;;;;4969520;28;20047;-81
2022/05/16 12:10:15;;;;;;;3.85;1.10;;;20.60;99.90;;;;;;4966134;28;20058;-82
2022/05/16 12:12:46;;;;;;;5.63;1.42;;;20.70;99.90;;;;;;4962654;28;20051;-83
2022/05/16 12:15:17;;;;;;;4.65;1.60;;;21.00;99.90;;;;;;4946161;28;20608;-83
2022/05/16 12:17:59;;;;;;;6.75;1.23;;;21.50;99.90;;;;;;4983796;28;20524;-83
2022/05/16 12:20:37;;;;;;;4.10;1.20;;;22.10;99.90;;;;;;4949020;29;20413;-84
2022/05/16 12:23:07;;;;;;;6.10;1.50;;;22.40;99.90;;;;;;4980219;28;20051;-84
2022/05/16 12:25:42;;;;;;;5.80;1.08;;;22.70;99.90;;;;;;4968864;28;20050;-82
2022/05/16 12:28:13;;;;;;;3.60;0.95;;;23.00;99.90;;;;;;4969515;28;20047;-83
2022/05/16 12:30:53;;;;;;;5.13;1.45;;;23.00;99.90;;;;;;4945761;28;20482;-85
2022/05/16 12:33:49;;;;;;;3.28;1.10;;;22.70;99.90;;;;;;4966301;28;20532;-84
2022/05/16 12:36:20;;;;;;;3.55;1.30;;;22.40;99.90;;;;;;4964470;28;20042;-83
2022/05/16 12:39:00;;;;;;;6.40;1.30;;;22.30;99.90;;;;;;4968656;28;20520;-83
2022/05/16 12:41:51;;;;;;;4.97;1.25;;;22.10;99.90;;;;;;4972651;28;20509;-83
2022/05/16 12:44:31;;;;;;;4.05;1.25;;;22.40;99.90;;;;;;4973491;28;20077;-83
2022/05/16 12:47:08;;;;;;;5.35;1.23;;;22.90;99.90;;;;;;4970627;28;20051;-83
2022/05/16 12:50:13;;;;;;;1.80;1.15;;;23.40;99.90;;;;;;4968623;28;20055;-83
2022/05/16 12:52:58;;;;;;;4.03;0.93;;;23.50;99.90;;;;;;4969169;28;20058;-83
2022/05/16 12:55:41;;;;;;;2.40;1.50;;;23.30;99.90;;;;;;4968899;28;20038;-83
2022/05/16 12:58:42;;;;;;;4.47;1.10;;;23.30;99.90;;;;;;4971317;28;20095;-82
2022/05/16 13:01:10;;;;;;;3.35;1.05;;;23.40;99.90;;;;;;4953071;29;20056;-81
2022/05/16 13:03:49;;;;;;;3.78;1.48;;;23.70;99.90;;;;;;4971014;28;20038;-83
2022/05/16 13:06:29;;;;;;;6.95;1.50;;;24.20;99.90;;;;;;4973059;28;20047;-87
2022/05/16 13:09:13;;;;;;;5.45;1.30;;;24.80;99.90;;;;;;4963338;28;20057;-84
2022/05/16 13:12:12;;;;;;;6.15;1.45;;;25.20;99.10;;;;;;4972032;28;20046;-83
2022/05/16 13:15:05;;;;;;;3.50;1.33;;;25.60;99.10;;;;;;4966158;28;20038;-83
2022/05/16 13:17:53;;;;;;;2.15;1.27;;;26.00;97.90;;;;;;4964889;28;20063;-83
2022/05/16 13:20:26;;;;;;;6.65;1.65;;;26.10;96.20;;;;;;4967802;28;20054;-85
2022/05/16 13:22:54;;;;;;;6.22;1.67;;;25.90;96.20;;;;;;4964323;28;20050;-83
2022/05/16 13:25:24;;;;;;;2.95;1.90;;;25.90;96.50;;;;;;4969034;28;20490;-84
2022/05/16 13:30:44;;;;;;;6.82;1.95;;;25.50;95.80;;;;;;4969447;28;19936;-83
2022/05/16 13:33:24;;;;;;;4.10;1.95;;;25.10;95.40;;;;;;4970077;28;20442;-84
2022/05/16 13:35:52;;;;;;;6.10;2.00;;;25.00;95.90;;;;;;4972708;28;20047;-84
2022/05/16 13:38:20;;;;;;;5.72;2.38;;;25.10;96.90;;;;;;4971965;28;20058;-84
2022/05/16 13:40:50;;;;;;;3.40;2.30;;;25.40;97.20;;;;;;4971953;28;20057;-84
2022/05/16 13:43:24;;;;;;;4.15;1.95;;;25.60;96.20;;;;;;4971582;28;20050;-84